Time;durP1;ratioP1;P1;durP2;ratioP2;P2;SDS_P1;SDS_P2;PMS_P1;PMS_P2;Temp;Humidity;BMP_temperature;BMP_pressure;BME280_temperature;BME280_humidity;BME280_pressure;Samples;Min_cycle;Max_cycle;Signal;HPM_P1;HPM_P2
2022/03/01 00:00:17;;;;;;;14.20;8.23;;;2.20;99.90;;;;;;4972144;28;20216;-70
2022/03/01 00:02:44;;;;;;;13.20;7.50;;;2.20;99.90;;;;;;4955199;28;20429;-71
2022/03/01 00:05:09;;;;;;;17.83;6.87;;;2.20;99.90;;;;;;4972076;28;20682;-71
2022/03/01 00:07:35;;;;;;;12.50;7.17;;;2.10;99.90;;;;;;4973239;28;20415;-73
2022/03/01 00:10:01;;;;;;;15.13;7.50;;;2.10;99.90;;;;;;4972137;28;20675;-72
2022/03/01 00:12:27;;;;;;;10.77;7.30;;;2.00;99.90;;;;;;4972344;28;20217;-72
2022/03/01 00:14:52;;;;;;;13.73;7.90;;;2.00;99.90;;;;;;4971941;28;20398;-72
2022/03/01 00:17:18;;;;;;;17.27;8.60;;;2.00;99.90;;;;;;4971591;28;20177;-72
2022/03/01 00:19:43;;;;;;;17.30;7.90;;;1.90;99.90;;;;;;4971917;28;20187;-73
2022/03/01 00:22:09;;;;;;;13.80;6.83;;;1.90;99.90;;;;;;4972753;28;20229;-73
2022/03/01 00:24:34;;;;;;;16.40;8.43;;;1.80;99.90;;;;;;4955127;28;20682;-72
2022/03/01 00:27:00;;;;;;;20.10;9.07;;;1.80;99.90;;;;;;4971626;28;20596;-72
2022/03/01 00:29:25;;;;;;;17.87;7.23;;;1.80;99.90;;;;;;4970975;28;20203;-72
2022/03/01 00:31:51;;;;;;;17.97;7.87;;;1.70;99.90;;;;;;4971159;28;20249;-72
2022/03/01 00:34:17;;;;;;;16.83;8.87;;;1.70;99.90;;;;;;4938412;28;20265;-70
2022/03/01 00:36:42;;;;;;;14.80;7.43;;;1.70;99.90;;;;;;4955330;28;20184;-73
2022/03/01 00:39:08;;;;;;;14.70;7.87;;;1.60;99.90;;;;;;4939387;28;20183;-72
2022/03/01 00:41:34;;;;;;;19.90;8.90;;;1.50;99.90;;;;;;4970346;28;20576;-72
2022/03/01 00:44:00;;;;;;;19.30;7.87;;;1.50;99.90;;;;;;4954494;28;20184;-72
2022/03/01 00:46:26;;;;;;;19.87;8.80;;;1.50;99.90;;;;;;4972175;28;20400;-73
2022/03/01 00:48:56;;;;;;;25.67;10.47;;;1.40;99.90;;;;;;4971215;28;20572;-72
2022/03/01 00:51:23;;;;;;;19.30;9.40;;;1.30;99.90;;;;;;4969885;28;20505;-73
2022/03/01 00:53:49;;;;;;;20.27;9.30;;;1.30;99.90;;;;;;4971425;28;20929;-72
2022/03/01 00:56:15;;;;;;;21.73;10.90;;;1.20;99.90;;;;;;4972185;28;20771;-72
2022/03/01 00:58:40;;;;;;;17.70;10.20;;;1.20;99.90;;;;;;4970700;28;20428;-72
2022/03/01 05:32:57;;;;;;;15.60;8.17;;;-2.80;99.90;;;;;;5103529;23;20493;-73
2022/03/01 05:35:26;;;;;;;16.40;9.00;;;-2.80;99.90;;;;;;4980332;28;20448;-74
2022/03/01 05:37:53;;;;;;;18.00;7.83;;;-2.90;99.90;;;;;;4991306;28;20211;-74
2022/03/01 05:40:21;;;;;;;21.90;8.63;;;-2.90;99.90;;;;;;4991353;28;20406;-73
2022/03/01 05:42:47;;;;;;;11.87;6.83;;;-2.90;99.90;;;;;;4990998;28;20517;-72
2022/03/01 05:45:13;;;;;;;19.17;7.60;;;-2.90;99.90;;;;;;4990965;28;21129;-73
2022/03/01 05:47:40;;;;;;;18.80;8.20;;;-3.00;99.90;;;;;;4990994;28;20486;-73
2022/03/01 05:50:06;;;;;;;14.47;7.90;;;-3.00;99.90;;;;;;4991559;28;20811;-73
2022/03/01 05:52:32;;;;;;;17.30;9.10;;;-3.00;99.90;;;;;;4990613;28;20446;-73
2022/03/01 05:54:57;;;;;;;18.63;9.27;;;-3.10;99.90;;;;;;4989989;28;20459;-72
2022/03/01 05:57:28;;;;;;;14.80;7.93;;;-3.10;99.90;;;;;;4991030;28;20185;-74
2022/03/01 05:59:54;;;;;;;18.03;9.67;;;-3.10;99.90;;;;;;4991074;28;20203;-72
2022/03/01 06:02:20;;;;;;;16.50;8.77;;;-3.10;99.90;;;;;;4990129;28;20485;-72
2022/03/01 06:04:46;;;;;;;22.63;9.07;;;-3.10;99.90;;;;;;4990281;28;20422;-74
2022/03/01 06:07:11;;;;;;;26.20;8.60;;;-3.00;99.90;;;;;;4990009;28;20611;-75
2022/03/01 06:09:37;;;;;;;22.27;9.17;;;-3.00;99.90;;;;;;4990807;28;20184;-73
2022/03/01 06:12:03;;;;;;;22.87;9.50;;;-3.00;99.90;;;;;;4990673;28;20208;-74
2022/03/01 06:14:28;;;;;;;19.87;9.43;;;-3.00;99.90;;;;;;4994014;28;20215;-74
2022/03/01 06:16:54;;;;;;;18.43;7.90;;;-2.90;99.90;;;;;;4994106;28;20742;-74
2022/03/01 06:19:19;;;;;;;20.37;9.90;;;-2.90;99.90;;;;;;4994331;28;20230;-74
2022/03/01 06:21:45;;;;;;;15.77;8.57;;;-2.90;99.90;;;;;;4994613;28;20550;-74
2022/03/01 06:24:11;;;;;;;19.03;9.53;;;-2.90;99.90;;;;;;4992289;28;20192;-74
2022/03/01 06:26:37;;;;;;;14.17;8.47;;;-2.80;99.90;;;;;;4993347;28;20188;-74
2022/03/01 06:29:04;;;;;;;14.60;8.90;;;-2.80;99.90;;;;;;4992378;28;20185;-74
2022/03/01 06:31:29;;;;;;;17.70;8.33;;;-2.80;99.90;;;;;;4992241;28;20546;-73
2022/03/01 06:33:56;;;;;;;15.50;8.10;;;-2.80;99.90;;;;;;4992021;28;20637;-73
2022/03/01 06:36:25;;;;;;;16.63;7.90;;;-2.70;99.90;;;;;;4992237;28;20207;-73
2022/03/01 06:38:51;;;;;;;14.57;8.30;;;-2.70;99.90;;;;;;4993734;28;20456;-73
2022/03/01 06:41:16;;;;;;;12.00;7.33;;;-2.70;99.90;;;;;;4993853;28;20411;-72
2022/03/01 06:43:42;;;;;;;19.23;7.27;;;-2.60;99.90;;;;;;4993602;28;20426;-73
2022/03/01 06:46:08;;;;;;;17.67;8.23;;;-2.50;99.90;;;;;;4993910;28;20271;-73
2022/03/01 06:48:34;;;;;;;23.10;8.60;;;-2.50;99.90;;;;;;4993688;28;20597;-73
2022/03/01 06:51:01;;;;;;;14.70;7.70;;;-2.50;99.90;;;;;;4994137;28;20438;-73
2022/03/01 06:53:26;;;;;;;14.20;8.23;;;-2.40;99.90;;;;;;4993131;28;20445;-74
2022/03/01 06:55:52;;;;;;;19.03;8.60;;;-2.30;99.90;;;;;;4994172;28;20424;-75
2022/03/01 06:58:17;;;;;;;14.43;7.10;;;-2.20;99.90;;;;;;4993502;28;20176;-73
2022/03/01 07:00:44;;;;;;;15.50;8.37;;;-2.10;99.90;;;;;;4992164;28;20643;-74
2022/03/01 07:03:10;;;;;;;18.33;8.20;;;-2.10;99.90;;;;;;4992957;28;20228;-74
2022/03/01 07:05:36;;;;;;;22.67;9.70;;;-1.90;99.90;;;;;;4993917;28;20447;-74
2022/03/01 07:08:02;;;;;;;12.70;7.67;;;-1.80;99.90;;;;;;4993006;28;20497;-72
2022/03/01 07:10:27;;;;;;;15.60;7.60;;;-1.50;99.90;;;;;;4993456;28;20491;-74
2022/03/01 07:12:53;;;;;;;14.43;8.13;;;-1.30;99.90;;;;;;4992230;28;20835;-74
2022/03/01 07:15:19;;;;;;;20.97;9.70;;;-0.90;99.90;;;;;;4993610;28;20208;-74
2022/03/01 07:17:45;;;;;;;22.80;9.27;;;0.10;99.90;;;;;;4993883;28;20550;-74
2022/03/01 07:20:12;;;;;;;15.20;9.17;;;2.00;99.90;;;;;;4993241;28;20683;-74
2022/03/01 07:22:38;;;;;;;15.10;9.70;;;4.10;99.90;;;;;;4992507;28;20449;-74
2022/03/01 07:25:05;;;;;;;17.97;10.60;;;5.30;99.90;;;;;;4992966;28;20539;-74
2022/03/01 07:27:30;;;;;;;20.43;11.00;;;5.40;99.90;;;;;;4993336;28;20460;-74
2022/03/01 07:29:56;;;;;;;18.53;10.73;;;6.80;99.90;;;;;;4993451;28;20453;-73
2022/03/01 07:32:22;;;;;;;21.57;11.67;;;8.10;99.90;;;;;;4992782;28;20220;-74
2022/03/01 07:34:47;;;;;;;18.50;11.37;;;9.10;99.90;;;;;;4992731;28;20469;-75
2022/03/01 07:37:13;;;;;;;25.80;12.30;;;10.40;99.90;;;;;;4992816;28;20180;-76
2022/03/01 07:39:39;;;;;;;19.00;10.97;;;10.50;99.90;;;;;;4992574;28;20171;-75
2022/03/01 07:42:04;;;;;;;19.33;10.83;;;10.50;99.90;;;;;;4992854;28;20199;-77
2022/03/01 07:44:30;;;;;;;20.67;13.17;;;11.10;99.90;;;;;;4992774;28;20223;-75
2022/03/01 07:46:56;;;;;;;22.30;13.47;;;11.20;99.90;;;;;;4992831;28;20584;-76
2022/03/01 07:49:22;;;;;;;20.87;12.63;;;11.00;98.40;;;;;;4992912;28;20175;-74
2022/03/01 07:51:47;;;;;;;23.67;14.00;;;11.20;97.40;;;;;;4992814;28;20453;-75
2022/03/01 07:54:13;;;;;;;19.73;13.03;;;11.20;97.40;;;;;;4992109;28;20210;-75
2022/03/01 07:56:40;;;;;;;18.70;13.00;;;11.00;96.90;;;;;;4992757;28;20230;-74
2022/03/01 07:59:06;;;;;;;21.00;12.33;;;10.50;96.00;;;;;;4992546;28;20259;-75
2022/03/01 08:01:31;;;;;;;19.67;11.70;;;9.80;97.30;;;;;;4992312;28;20494;-74
2022/03/01 08:03:57;;;;;;;18.07;10.13;;;9.00;97.40;;;;;;4991993;28;20515;-73
2022/03/01 08:06:22;;;;;;;13.33;10.20;;;8.70;97.00;;;;;;4992866;28;20192;-74
2022/03/01 08:08:48;;;;;;;26.23;12.83;;;8.10;97.20;;;;;;4991983;28;20176;-75
2022/03/01 08:11:14;;;;;;;21.13;11.07;;;7.80;97.30;;;;;;4992353;28;20200;-74
2022/03/01 08:13:40;;;;;;;17.03;10.23;;;7.40;97.60;;;;;;4991867;28;20751;-74
2022/03/01 08:16:05;;;;;;;13.40;9.30;;;6.90;97.80;;;;;;4992451;28;20178;-74
2022/03/01 08:18:31;;;;;;;17.13;8.80;;;6.70;97.50;;;;;;4992301;28;20710;-73
2022/03/01 08:20:57;;;;;;;15.83;9.77;;;6.50;98.30;;;;;;4991993;28;20202;-73
2022/03/01 08:23:24;;;;;;;17.70;9.70;;;6.20;98.50;;;;;;4991289;28;20171;-75
2022/03/01 08:25:50;;;;;;;17.33;10.53;;;6.20;98.90;;;;;;4992806;28;20923;-75
2022/03/01 08:28:16;;;;;;;15.53;9.40;;;6.10;99.20;;;;;;4991924;28;20420;-74
2022/03/01 08:30:41;;;;;;;24.03;11.13;;;6.30;99.10;;;;;;4991995;28;20194;-74
2022/03/01 08:33:07;;;;;;;16.73;10.50;;;6.60;99.30;;;;;;4990468;28;20221;-74
2022/03/01 08:35:34;;;;;;;16.33;9.67;;;6.80;98.20;;;;;;4991484;28;20710;-74
2022/03/01 08:38:02;;;;;;;15.43;9.83;;;6.70;98.50;;;;;;4991496;28;20180;-74
2022/03/01 08:40:29;;;;;;;23.27;11.37;;;7.00;97.80;;;;;;4991654;28;20424;-75
2022/03/01 08:42:55;;;;;;;21.07;9.53;;;7.00;97.50;;;;;;4989242;28;20785;-75
2022/03/01 08:45:20;;;;;;;20.67;10.43;;;7.10;97.30;;;;;;4990684;28;20508;-74
2022/03/01 08:47:46;;;;;;;17.70;9.20;;;7.20;97.00;;;;;;4991795;28;20178;-74
2022/03/01 08:50:12;;;;;;;16.43;9.40;;;7.00;96.80;;;;;;4991588;28;20644;-74
2022/03/01 08:52:39;;;;;;;15.13;10.33;;;7.10;96.40;;;;;;4991687;28;20225;-74
2022/03/01 08:55:06;;;;;;;16.50;8.90;;;7.30;97.30;;;;;;4990937;28;20596;-74
2022/03/01 08:57:31;;;;;;;12.90;8.87;;;7.50;96.80;;;;;;4991895;28;20395;-74
2022/03/01 08:59:57;;;;;;;19.97;10.80;;;7.50;96.50;;;;;;4990924;28;20420;-74
2022/03/01 09:02:22;;;;;;;26.33;9.43;;;7.90;95.60;;;;;;4991439;28;20195;-75
2022/03/01 09:04:48;;;;;;;14.40;9.90;;;8.20;95.00;;;;;;4989926;28;20210;-75
2022/03/01 09:07:13;;;;;;;13.07;8.40;;;8.30;95.40;;;;;;4990881;28;20307;-75
2022/03/01 09:09:39;;;;;;;19.50;10.00;;;8.50;94.50;;;;;;4991116;28;20662;-75
2022/03/01 09:12:05;;;;;;;14.13;8.93;;;8.60;94.00;;;;;;4991365;28;20195;-75
2022/03/01 09:14:30;;;;;;;14.47;9.43;;;8.40;94.00;;;;;;4990894;28;20211;-75
2022/03/01 09:16:56;;;;;;;23.70;10.33;;;8.50;94.70;;;;;;4991101;28;20482;-75
2022/03/01 09:19:22;;;;;;;14.23;8.83;;;8.40;94.30;;;;;;4991218;28;20173;-75
2022/03/01 09:21:47;;;;;;;14.43;10.27;;;8.60;94.20;;;;;;4991113;28;20216;-74
2022/03/01 09:24:13;;;;;;;12.90;9.50;;;8.30;93.50;;;;;;4990401;28;20654;-74
2022/03/01 09:26:38;;;;;;;15.63;9.30;;;8.20;94.50;;;;;;4991586;28;20185;-74
2022/03/01 09:29:04;;;;;;;14.03;9.33;;;8.60;94.60;;;;;;4990983;28;20181;-74
2022/03/01 09:31:30;;;;;;;14.37;9.60;;;8.30;93.90;;;;;;4990641;28;20695;-73
2022/03/01 09:33:56;;;;;;;14.83;9.63;;;8.50;93.90;;;;;;4990207;28;20216;-74
2022/03/01 09:36:22;;;;;;;16.93;9.90;;;8.40;93.50;;;;;;4991157;28;20180;-74
2022/03/01 09:38:49;;;;;;;14.67;8.40;;;8.70;94.40;;;;;;4991073;28;20425;-74
2022/03/01 09:41:15;;;;;;;11.77;9.20;;;8.60;93.30;;;;;;4990261;28;20487;-74
2022/03/01 09:43:41;;;;;;;16.40;9.60;;;8.60;93.50;;;;;;4990507;28;20429;-75
2022/03/01 09:46:09;;;;;;;12.87;9.10;;;9.00;94.30;;;;;;4991004;28;20465;-75
2022/03/01 09:48:36;;;;;;;19.30;9.23;;;9.20;91.80;;;;;;4989815;28;20431;-74
2022/03/01 09:51:03;;;;;;;18.73;9.27;;;9.40;92.30;;;;;;4989630;28;20456;-74
2022/03/01 09:53:29;;;;;;;16.07;9.27;;;9.40;91.30;;;;;;4989933;28;20521;-75
2022/03/01 09:55:55;;;;;;;15.10;9.20;;;9.50;90.90;;;;;;4990581;28;20426;-75
2022/03/01 09:58:21;;;;;;;11.20;8.43;;;9.90;91.70;;;;;;4990891;28;20180;-74
2022/03/01 10:00:47;;;;;;;17.30;8.87;;;9.80;90.90;;;;;;4990968;28;20423;-74
2022/03/01 10:03:17;;;;;;;19.83;8.77;;;9.00;90.00;;;;;;4989866;28;20472;-74
2022/03/01 10:05:43;;;;;;;16.00;8.67;;;8.30;90.00;;;;;;4991226;28;20180;-74
2022/03/01 10:08:14;;;;;;;14.40;9.33;;;8.30;90.50;;;;;;4990365;28;20433;-74
2022/03/01 10:10:41;;;;;;;16.57;8.40;;;8.40;89.90;;;;;;4990577;28;20418;-75
2022/03/01 10:13:07;;;;;;;14.03;8.43;;;8.80;90.20;;;;;;4989586;28;20469;-74
2022/03/01 10:15:33;;;;;;;11.30;8.13;;;9.40;90.50;;;;;;4990648;28;20461;-75
2022/03/01 10:18:07;;;;;;;10.90;7.83;;;9.50;89.40;;;;;;4989009;28;20416;-74
2022/03/01 10:20:33;;;;;;;17.03;9.07;;;9.10;87.50;;;;;;4990580;28;20192;-74
2022/03/01 10:22:58;;;;;;;10.53;8.13;;;9.20;87.80;;;;;;4989675;28;20410;-74
2022/03/01 10:25:26;;;;;;;13.97;8.70;;;9.30;86.90;;;;;;4990127;28;20180;-73
2022/03/01 10:27:53;;;;;;;11.80;8.03;;;9.50;87.60;;;;;;4990481;28;20181;-74
2022/03/01 10:30:29;;;;;;;11.53;7.77;;;9.90;86.70;;;;;;4989859;28;20450;-73
2022/03/01 10:33:12;;;;;;;13.97;8.60;;;10.20;84.70;;;;;;4989616;28;20519;-74
2022/03/01 10:35:41;;;;;;;12.17;9.57;;;10.20;85.10;;;;;;4990344;28;20428;-72
2022/03/01 10:38:08;;;;;;;13.07;8.43;;;10.70;83.40;;;;;;4990167;28;20428;-74
2022/03/01 10:40:35;;;;;;;12.20;8.23;;;10.60;81.10;;;;;;4990300;28;20426;-75
2022/03/01 10:43:05;;;;;;;11.37;7.30;;;10.90;84.00;;;;;;4989119;28;20476;-74
2022/03/01 10:45:42;;;;;;;13.00;7.80;;;10.80;80.30;;;;;;4991171;28;20425;-76
2022/03/01 10:48:10;;;;;;;12.23;8.40;;;10.80;79.00;;;;;;4991385;28;20477;-75
2022/03/01 10:50:37;;;;;;;15.00;9.77;;;10.80;79.90;;;;;;4990981;28;21138;-74
2022/03/01 10:53:03;;;;;;;11.17;8.93;;;10.90;82.00;;;;;;4990197;28;20886;-74
2022/03/01 10:55:34;;;;;;;15.13;7.87;;;10.90;79.00;;;;;;4990058;28;20437;-76
2022/03/01 10:58:10;;;;;;;54.33;26.00;;;11.00;78.70;;;;;;4990506;28;20385;-74
2022/03/01 11:00:37;;;;;;;11.60;8.00;;;11.30;78.60;;;;;;4994206;28;20413;-75
2022/03/01 11:03:07;;;;;;;14.27;8.27;;;11.30;76.10;;;;;;4992654;28;21093;-75
2022/03/01 11:05:33;;;;;;;13.30;7.27;;;11.00;75.40;;;;;;4994269;28;20429;-75
2022/03/01 11:08:03;;;;;;;16.73;7.20;;;10.90;75.50;;;;;;4991865;28;20585;-75
2022/03/01 11:10:31;;;;;;;13.17;8.00;;;10.80;77.30;;;;;;4993858;28;20561;-74
2022/03/01 11:13:00;;;;;;;14.43;8.20;;;11.00;78.50;;;;;;4992267;28;20440;-74
2022/03/01 11:16:09;;;;;;;12.43;7.50;;;10.70;76.70;;;;;;4994325;28;20759;-74
2022/03/01 11:19:04;;;;;;;10.90;7.27;;;10.90;74.40;;;;;;4993852;28;20485;-75
2022/03/01 11:21:31;;;;;;;12.00;7.20;;;10.80;74.40;;;;;;4993667;28;20534;-75
2022/03/01 11:23:57;;;;;;;9.97;6.23;;;10.10;72.80;;;;;;4992113;28;20843;-74
2022/03/01 11:26:23;;;;;;;12.40;6.67;;;9.70;73.20;;;;;;4993725;28;20427;-74
2022/03/01 11:28:54;;;;;;;12.63;7.33;;;10.00;75.90;;;;;;4993387;28;20196;-75
2022/03/01 11:31:24;;;;;;;14.50;7.23;;;9.90;74.50;;;;;;4993194;28;20782;-74
2022/03/01 11:33:58;;;;;;;11.10;7.17;;;9.90;72.90;;;;;;4993586;28;20971;-76
2022/03/01 11:36:26;;;;;;;8.67;7.07;;;10.00;72.30;;;;;;4994137;28;20405;-74
2022/03/01 11:38:52;;;;;;;12.13;7.17;;;10.20;75.00;;;;;;4992642;28;20440;-74
2022/03/01 11:41:22;;;;;;;13.20;6.87;;;10.30;73.10;;;;;;4992395;28;20562;-76
2022/03/01 11:43:57;;;;;;;9.60;7.10;;;10.50;74.20;;;;;;4992761;28;20189;-75
2022/03/01 11:46:23;;;;;;;8.40;6.03;;;10.60;74.70;;;;;;4993283;28;20415;-75
2022/03/01 11:48:57;;;;;;;12.40;7.07;;;10.90;75.70;;;;;;4992800;28;20468;-75
2022/03/01 11:51:38;;;;;;;9.30;6.70;;;10.90;69.70;;;;;;4991506;28;20807;-75
2022/03/01 11:54:07;;;;;;;14.47;6.63;;;10.50;68.00;;;;;;4992465;28;20830;-74
2022/03/01 11:56:36;;;;;;;9.80;6.20;;;10.50;67.70;;;;;;4993275;28;20409;-76
2022/03/01 11:59:12;;;;;;;10.20;7.20;;;10.70;70.50;;;;;;4992324;28;20502;-75
2022/03/01 12:01:38;;;;;;;8.87;6.00;;;10.50;65.10;;;;;;4992969;28;20439;-75
2022/03/01 12:04:05;;;;;;;15.17;10.40;;;10.40;68.70;;;;;;4992179;28;20783;-75
2022/03/01 12:06:34;;;;;;;11.33;7.30;;;10.10;68.50;;;;;;4992833;28;20512;-75
2022/03/01 12:09:15;;;;;;;7.93;6.63;;;10.20;71.00;;;;;;4992325;28;20417;-74
2022/03/01 12:11:44;;;;;;;7.80;5.90;;;9.90;72.80;;;;;;4991207;28;20948;-74
2022/03/01 12:14:14;;;;;;;12.60;6.80;;;9.70;71.40;;;;;;4991801;28;20465;-74
2022/03/01 12:16:40;;;;;;;14.33;7.93;;;9.60;73.50;;;;;;4992668;28;20476;-76
2022/03/01 12:19:08;;;;;;;9.03;6.97;;;9.20;71.50;;;;;;4992175;28;20414;-75
2022/03/01 12:21:35;;;;;;;9.87;7.07;;;9.00;73.10;;;;;;4992592;28;20196;-75
2022/03/01 12:24:01;;;;;;;12.77;7.57;;;9.00;72.90;;;;;;4991047;28;20426;-75
2022/03/01 12:26:27;;;;;;;9.23;6.60;;;9.00;72.90;;;;;;4983876;28;20502;-76
2022/03/01 12:28:58;;;;;;;10.90;7.03;;;9.30;77.90;;;;;;4972949;28;20187;-75
2022/03/01 12:31:26;;;;;;;10.93;7.20;;;9.60;75.00;;;;;;4972417;28;20831;-75
2022/03/01 12:33:53;;;;;;;13.23;7.80;;;9.70;73.90;;;;;;4971619;28;20538;-75
2022/03/01 12:36:27;;;;;;;10.03;7.00;;;9.80;76.10;;;;;;4971270;28;20434;-75
2022/03/01 12:38:59;;;;;;;10.97;7.90;;;10.00;76.10;;;;;;4971584;28;20803;-75
2022/03/01 12:41:25;;;;;;;12.67;7.67;;;10.20;74.30;;;;;;4972666;28;20452;-75
2022/03/01 12:43:52;;;;;;;12.17;6.73;;;10.10;70.50;;;;;;4972205;28;20454;-75
2022/03/01 12:46:19;;;;;;;10.83;7.23;;;9.80;72.20;;;;;;4972097;28;20183;-75
2022/03/01 12:48:45;;;;;;;9.70;6.80;;;9.90;72.80;;;;;;4972761;28;20505;-75
2022/03/01 12:51:11;;;;;;;12.00;7.03;;;9.90;75.20;;;;;;4971727;28;20796;-75
2022/03/01 12:53:37;;;;;;;13.90;7.60;;;9.80;72.10;;;;;;4973397;28;20573;-75
2022/03/01 12:56:03;;;;;;;11.40;7.60;;;9.70;71.50;;;;;;5002076;28;20841;-75
2022/03/01 12:58:28;;;;;;;12.60;7.30;;;9.70;74.10;;;;;;5009958;28;20193;-75
2022/03/01 13:01:06;;;;;;;10.17;6.13;;;9.40;74.10;;;;;;5011558;28;20234;-75
2022/03/01 13:03:32;;;;;;;12.97;8.43;;;9.20;74.10;;;;;;5010242;28;20240;-75
2022/03/01 13:06:13;;;;;;;10.77;7.00;;;8.90;75.00;;;;;;5011061;28;20412;-75
2022/03/01 13:08:40;;;;;;;10.70;7.77;;;8.90;75.30;;;;;;5010892;28;20497;-75
2022/03/01 13:11:08;;;;;;;8.53;6.27;;;9.00;76.00;;;;;;5010534;28;20975;-75
2022/03/01 13:13:44;;;;;;;8.70;5.90;;;9.00;76.50;;;;;;5008765;28;20467;-75
2022/03/01 13:16:10;;;;;;;10.00;6.90;;;9.10;74.40;;;;;;5010068;28;20410;-76
2022/03/01 13:18:36;;;;;;;11.70;7.27;;;9.00;73.80;;;;;;5010586;28;20503;-75
2022/03/01 13:21:02;;;;;;;10.00;6.90;;;8.90;74.70;;;;;;5010565;28;20424;-75
2022/03/01 13:23:30;;;;;;;10.47;7.53;;;8.80;73.70;;;;;;5009704;28;20175;-76
2022/03/01 13:25:57;;;;;;;9.80;6.83;;;8.80;74.60;;;;;;5010412;28;20419;-76
2022/03/01 13:28:37;;;;;;;11.77;7.00;;;8.90;75.30;;;;;;5010604;28;20439;-75
2022/03/01 13:31:05;;;;;;;10.90;6.30;;;9.00;76.90;;;;;;5010049;28;20427;-75
2022/03/01 13:33:32;;;;;;;11.00;7.00;;;8.90;76.00;;;;;;5009994;28;20456;-75
2022/03/01 13:36:10;;;;;;;9.67;6.53;;;8.90;75.50;;;;;;5007552;28;20761;-75
2022/03/01 13:38:36;;;;;;;10.13;7.13;;;8.90;76.20;;;;;;4969111;28;21013;-76
2022/03/01 13:41:01;;;;;;;12.50;6.33;;;8.80;75.10;;;;;;4967689;28;20441;-76
2022/03/01 13:43:27;;;;;;;7.57;6.77;;;8.90;75.20;;;;;;4967948;28;20615;-75
2022/03/01 13:46:01;;;;;;;9.10;7.30;;;9.00;79.20;;;;;;4967911;28;20189;-76
2022/03/01 13:48:29;;;;;;;11.70;7.00;;;9.10;76.90;;;;;;4966341;28;20285;-76
2022/03/01 13:51:07;;;;;;;11.43;7.87;;;9.00;77.30;;;;;;4969009;28;20482;-75
2022/03/01 13:53:34;;;;;;;8.37;6.77;;;8.80;76.80;;;;;;4967744;28;20823;-76
2022/03/01 13:56:01;;;;;;;10.97;7.70;;;8.70;78.30;;;;;;4967652;28;20412;-75
2022/03/01 13:58:30;;;;;;;9.27;7.30;;;8.50;78.80;;;;;;4967163;28;20450;-75
2022/03/01 14:00:59;;;;;;;9.60;7.60;;;8.50;78.50;;;;;;4973236;28;20518;-74
2022/03/01 14:03:28;;;;;;;12.53;6.67;;;8.50;76.80;;;;;;4986765;28;20431;-75
2022/03/01 14:06:01;;;;;;;10.83;7.30;;;8.50;77.70;;;;;;4987912;28;20426;-74
2022/03/01 14:08:28;;;;;;;10.73;7.27;;;8.50;77.70;;;;;;4990369;28;20428;-74
2022/03/01 14:10:57;;;;;;;8.87;7.00;;;8.70;79.70;;;;;;4990298;28;20420;-75
2022/03/01 14:13:31;;;;;;;12.87;8.13;;;8.80;78.10;;;;;;4989419;28;20470;-75
2022/03/01 14:16:14;;;;;;;10.47;7.30;;;9.00;78.70;;;;;;4990267;28;20432;-74
2022/03/01 14:18:59;;;;;;;9.87;6.77;;;9.10;78.80;;;;;;4989704;28;20445;-74
2022/03/01 14:21:25;;;;;;;12.10;7.77;;;8.90;78.30;;;;;;4989878;28;20880;-75
2022/03/01 14:23:52;;;;;;;11.23;7.77;;;9.00;80.90;;;;;;4989830;28;20517;-75
2022/03/01 14:26:18;;;;;;;10.03;7.37;;;9.00;79.80;;;;;;4990269;28;20275;-75
2022/03/01 14:28:55;;;;;;;9.50;7.43;;;9.00;79.20;;;;;;4990356;28;20424;-75
2022/03/01 14:31:22;;;;;;;11.57;7.90;;;8.90;77.90;;;;;;4987064;28;21016;-75
2022/03/01 14:33:48;;;;;;;10.63;7.33;;;8.80;79.00;;;;;;4990935;28;20459;-74
2022/03/01 14:36:14;;;;;;;11.60;8.00;;;8.70;77.00;;;;;;4993631;28;20426;-75
2022/03/01 14:38:40;;;;;;;12.53;7.90;;;8.60;79.30;;;;;;4993421;28;20426;-75
2022/03/01 14:41:06;;;;;;;11.83;7.00;;;8.70;81.00;;;;;;4993533;28;20190;-75
2022/03/01 14:43:32;;;;;;;9.43;7.37;;;8.60;78.00;;;;;;4993812;28;20463;-75
2022/03/01 14:45:58;;;;;;;9.57;7.23;;;8.70;78.40;;;;;;4993909;28;20945;-75
2022/03/01 14:48:23;;;;;;;9.13;6.63;;;8.70;79.80;;;;;;4994175;28;20269;-75
2022/03/01 14:50:49;;;;;;;9.13;6.57;;;8.70;80.90;;;;;;4993132;28;20185;-75
2022/03/01 14:53:14;;;;;;;11.10;7.40;;;8.70;78.90;;;;;;4993094;28;20206;-74
2022/03/01 14:55:40;;;;;;;8.50;6.60;;;8.70;78.70;;;;;;4993665;28;20366;-74
2022/03/01 14:58:06;;;;;;;9.40;5.77;;;8.50;77.80;;;;;;4993626;28;20650;-75
2022/03/01 15:00:31;;;;;;;9.90;6.93;;;8.50;80.20;;;;;;4993286;28;20538;-75
2022/03/01 15:02:57;;;;;;;10.70;7.13;;;8.50;78.80;;;;;;4992515;28;20190;-73
2022/03/01 15:05:24;;;;;;;10.90;8.17;;;8.60;78.30;;;;;;4993858;28;20177;-75
2022/03/01 15:07:49;;;;;;;7.70;6.43;;;8.60;78.60;;;;;;4993666;28;20422;-76
2022/03/01 15:10:20;;;;;;;11.47;7.83;;;8.60;78.70;;;;;;4993338;28;20494;-75
2022/03/01 15:12:48;;;;;;;7.77;6.67;;;8.60;78.10;;;;;;4992404;28;20203;-75
2022/03/01 15:15:14;;;;;;;10.20;7.30;;;8.60;76.60;;;;;;4993352;28;20996;-74
2022/03/01 15:17:42;;;;;;;10.80;7.37;;;8.60;77.80;;;;;;4992997;28;20450;-74
2022/03/01 15:20:09;;;;;;;13.03;7.33;;;8.50;77.10;;;;;;4992906;28;20408;-74
2022/03/01 15:22:35;;;;;;;10.53;7.10;;;8.50;77.30;;;;;;4992689;28;20431;-74
2022/03/01 15:25:01;;;;;;;13.67;7.30;;;8.60;78.20;;;;;;4990853;28;20425;-74
2022/03/01 15:27:27;;;;;;;11.20;6.93;;;8.50;78.00;;;;;;4992949;28;20417;-74
2022/03/01 15:29:52;;;;;;;11.20;7.30;;;8.60;78.80;;;;;;4993180;28;20182;-74
2022/03/01 15:32:19;;;;;;;10.20;7.60;;;8.50;77.60;;;;;;4992108;28;20457;-74
2022/03/01 15:34:44;;;;;;;10.87;6.80;;;8.40;77.90;;;;;;4992612;28;20201;-74
2022/03/01 15:37:10;;;;;;;12.57;7.87;;;8.30;78.60;;;;;;4991630;28;20420;-74
2022/03/01 15:39:41;;;;;;;10.53;7.23;;;8.20;76.50;;;;;;4992615;28;20241;-74
2022/03/01 15:42:07;;;;;;;10.33;7.67;;;8.10;77.60;;;;;;4992215;28;20192;-74
2022/03/01 15:44:32;;;;;;;10.60;7.70;;;8.20;78.00;;;;;;4991930;28;20896;-74
2022/03/01 15:46:58;;;;;;;14.43;8.07;;;8.20;77.00;;;;;;4991834;28;20466;-74
2022/03/01 15:49:23;;;;;;;15.37;8.00;;;8.20;76.70;;;;;;4992891;28;20177;-74
2022/03/01 15:51:49;;;;;;;8.40;7.10;;;8.20;78.10;;;;;;4991973;28;20197;-74
2022/03/01 15:54:15;;;;;;;9.97;7.07;;;8.10;77.70;;;;;;4992184;28;20240;-74
2022/03/01 15:56:41;;;;;;;10.60;7.03;;;8.20;79.20;;;;;;4994221;28;20210;-74
2022/03/01 15:59:06;;;;;;;10.73;7.37;;;8.10;77.00;;;;;;4995657;28;20409;-74
2022/03/01 16:01:32;;;;;;;15.17;8.10;;;8.20;77.40;;;;;;4992566;28;20288;-74
2022/03/01 16:03:58;;;;;;;11.63;6.83;;;8.10;77.10;;;;;;4991121;28;20606;-74
2022/03/01 16:06:24;;;;;;;14.50;8.07;;;8.00;79.50;;;;;;4992669;28;20405;-75
2022/03/01 16:08:49;;;;;;;11.83;7.50;;;7.90;78.70;;;;;;4992199;28;20186;-75
2022/03/01 16:11:15;;;;;;;13.53;7.73;;;7.90;80.00;;;;;;4992050;28;20817;-74
2022/03/01 16:13:40;;;;;;;14.77;7.07;;;7.80;79.20;;;;;;4991851;28;20563;-75
2022/03/01 16:16:07;;;;;;;11.27;8.07;;;7.70;79.30;;;;;;4992354;28;20185;-74
2022/03/01 16:18:36;;;;;;;8.57;6.40;;;7.70;79.30;;;;;;4991600;28;20172;-75
2022/03/01 16:21:06;;;;;;;8.73;7.53;;;7.60;79.90;;;;;;4991651;28;20436;-75
2022/03/01 16:23:32;;;;;;;10.80;7.17;;;7.50;80.00;;;;;;4991977;28;20412;-74
2022/03/01 16:25:58;;;;;;;12.77;7.80;;;7.50;80.10;;;;;;4991588;28;20566;-74
2022/03/01 16:28:24;;;;;;;9.67;6.90;;;7.50;80.70;;;;;;4991995;28;20235;-74
2022/03/01 16:30:49;;;;;;;9.80;7.43;;;7.40;81.20;;;;;;4991910;28;20173;-74
2022/03/01 16:33:15;;;;;;;13.30;7.70;;;7.30;81.50;;;;;;4990981;28;20416;-74
2022/03/01 16:35:40;;;;;;;12.97;7.40;;;7.20;81.90;;;;;;4991922;28;20173;-74
2022/03/01 16:38:06;;;;;;;15.90;8.10;;;7.10;83.00;;;;;;4990418;28;20267;-74
2022/03/01 16:40:32;;;;;;;11.93;8.67;;;7.00;82.70;;;;;;4991727;28;20192;-74
2022/03/01 16:42:58;;;;;;;9.17;6.80;;;7.00;84.10;;;;;;4990425;28;20460;-74
2022/03/01 16:45:23;;;;;;;9.57;6.57;;;6.90;84.40;;;;;;4991797;28;20602;-75
2022/03/01 16:47:49;;;;;;;17.50;8.63;;;6.80;84.50;;;;;;4991885;28;20268;-75
2022/03/01 16:50:14;;;;;;;12.00;7.10;;;6.80;85.30;;;;;;4991140;28;20191;-75
2022/03/01 16:52:41;;;;;;;14.63;8.10;;;6.70;88.10;;;;;;4991798;28;20210;-74
2022/03/01 16:55:07;;;;;;;11.83;8.37;;;6.60;90.10;;;;;;4990950;28;20759;-75
2022/03/01 16:57:33;;;;;;;18.37;10.07;;;6.50;90.00;;;;;;4990753;28;20524;-74
2022/03/01 16:59:59;;;;;;;15.10;9.40;;;6.50;90.50;;;;;;4991063;28;20530;-75
2022/03/01 17:02:24;;;;;;;12.00;8.20;;;6.40;93.00;;;;;;4991250;28;20196;-74
2022/03/01 17:04:50;;;;;;;13.43;8.67;;;6.30;94.20;;;;;;4991392;28;20551;-74
2022/03/01 17:07:15;;;;;;;11.17;7.50;;;6.20;92.60;;;;;;4991448;28;20598;-74
2022/03/01 17:09:41;;;;;;;14.30;8.93;;;6.10;93.30;;;;;;4991206;28;20718;-74
2022/03/01 17:12:08;;;;;;;10.83;7.30;;;6.00;93.20;;;;;;4990340;28;20227;-73
2022/03/01 17:14:34;;;;;;;12.23;7.87;;;5.90;93.40;;;;;;4990796;28;20584;-75